createdAt,value
2022-09-05T00:01:45.717Z,99.90
2022-09-05T00:04:35.065Z,99.90
2022-09-05T00:07:07.055Z,99.90
2022-09-05T00:09:38.742Z,99.90
2022-09-05T00:12:08.298Z,99.90
2022-09-05T00:15:14.893Z,99.90
2022-09-05T00:18:56.497Z,99.90
2022-09-05T00:24:31.664Z,99.90
2022-09-05T00:24:35.329Z,99.90
2022-09-05T00:26:50.215Z,99.90
2022-09-05T00:31:05.950Z,99.90
2022-09-05T00:32:54.381Z,99.90
2022-09-05T00:35:41.632Z,99.90
2022-09-05T00:38:19.646Z,99.90
2022-09-05T00:40:52.019Z,99.90
2022-09-05T00:43:35.229Z,99.90
2022-09-05T00:46:09.016Z,99.90
2022-09-05T00:48:56.532Z,99.90
2022-09-05T00:51:51.583Z,99.70
2022-09-05T00:54:41.259Z,99.90
2022-09-05T00:57:30.496Z,99.90
2022-09-05T01:00:13.716Z,99.90
2022-09-05T01:03:13.101Z,99.90
2022-09-05T01:05:51.000Z,99.90
2022-09-05T01:08:34.803Z,99.40
2022-09-05T01:11:09.854Z,99.70
2022-09-05T01:13:53.776Z,99.80
2022-09-05T01:16:32.339Z,99.90
2022-09-05T01:19:04.046Z,99.90
2022-09-05T01:21:38.924Z,99.90
2022-09-05T01:24:07.727Z,99.90
2022-09-05T01:26:54.985Z,99.90
2022-09-05T01:29:29.454Z,99.90
2022-09-05T01:32:19.767Z,99.90
2022-09-05T01:35:04.138Z,99.90
2022-09-05T01:37:34.266Z,99.90
2022-09-05T01:40:27.082Z,99.90
2022-09-05T01:43:19.444Z,99.90
2022-09-05T01:45:52.308Z,99.90
2022-09-05T01:48:47.468Z,99.90
2022-09-05T01:51:31.502Z,99.90
2022-09-05T01:54:00.956Z,99.90
2022-09-05T01:56:35.844Z,99.90
2022-09-05T01:59:22.951Z,99.90
2022-09-05T02:02:01.098Z,99.90
2022-09-05T02:04:48.176Z,99.90
2022-09-05T02:07:30.253Z,99.90
2022-09-05T02:10:07.242Z,99.90
2022-09-05T02:12:42.605Z,99.90
2022-09-05T02:15:18.807Z,99.70
2022-09-05T02:17:53.477Z,99.90
2022-09-05T02:20:36.416Z,99.90
2022-09-05T02:23:40.689Z,99.80
2022-09-05T02:26:06.422Z,99.50
2022-09-05T02:28:42.382Z,99.40
2022-09-05T02:31:22.863Z,99.40
2022-09-05T02:34:01.713Z,99.20
2022-09-05T02:36:44.206Z,99.10
2022-09-05T02:45:03.804Z,98.90
2022-09-05T02:45:11.755Z,98.80
2022-09-05T02:45:38.616Z,98.50
2022-09-05T02:48:15.544Z,98.50
2022-09-05T02:57:07.821Z,98.10
2022-09-05T02:57:33.269Z,97.60
2022-09-05T02:57:43.274Z,97.90
2022-09-05T02:59:49.899Z,97.40
2022-09-05T03:02:29.117Z,97.30
2022-09-05T03:05:07.021Z,97.20
2022-09-05T03:07:45.333Z,97.20
2022-09-05T03:10:53.660Z,97.20
2022-09-05T03:13:24.202Z,97.20
2022-09-05T03:15:56.171Z,97.20
2022-09-05T03:18:28.099Z,97.00
2022-09-05T03:21:16.236Z,97.00
2022-09-05T03:23:57.469Z,96.90
2022-09-05T03:26:44.920Z,96.60
2022-09-05T03:29:33.545Z,96.60
2022-09-05T03:32:20.939Z,96.50
2022-09-05T03:34:55.827Z,96.50
2022-09-05T03:37:36.685Z,96.60
2022-09-05T03:40:21.695Z,96.60
2022-09-05T03:43:05.183Z,96.50
2022-09-05T03:45:47.448Z,96.60
2022-09-05T03:48:34.613Z,96.20
2022-09-05T03:57:13.049Z,96.10
2022-09-05T03:57:13.566Z,96.10
2022-09-05T03:57:15.713Z,95.80
2022-09-05T03:59:51.364Z,95.60
2022-09-05T04:08:06.612Z,95.70
2022-09-05T04:08:13.809Z,95.70
2022-09-05T04:08:33.057Z,95.70
2022-09-05T04:11:09.164Z,95.70
2022-09-05T04:13:38.623Z,95.60
2022-09-05T04:16:07.529Z,95.40
2022-09-05T04:18:43.084Z,95.30
2022-09-05T04:21:18.284Z,95.50
2022-09-05T04:24:05.520Z,95.40
2022-09-05T04:26:37.594Z,95.20
2022-09-05T04:29:06.354Z,94.90
2022-09-05T04:31:41.423Z,94.80
2022-09-05T04:34:28.788Z,94.50
2022-09-05T04:37:08.619Z,94.70
2022-09-05T04:39:38.509Z,94.70
2022-09-05T04:42:07.418Z,94.70
2022-09-05T04:44:47.772Z,94.80
2022-09-05T04:47:20.789Z,94.70
2022-09-05T04:49:59.491Z,94.60
2022-09-05T04:52:38.521Z,94.50
2022-09-05T04:55:12.824Z,94.40
2022-09-05T04:57:41.808Z,94.50
2022-09-05T05:05:58.655Z,94.50
2022-09-05T05:06:16.907Z,94.30
2022-09-05T05:06:46.935Z,94.30
2022-09-05T05:09:21.332Z,94.30
2022-09-05T05:17:58.968Z,94.40
2022-09-05T05:18:12.194Z,94.50
2022-09-05T05:18:36.518Z,94.40
2022-09-05T05:20:57.900Z,94.30
2022-09-05T05:23:41.340Z,94.20
2022-09-05T05:26:12.714Z,94.10
2022-09-05T05:29:04.534Z,94.00
2022-09-05T05:31:35.851Z,94.00
2022-09-05T05:34:09.753Z,93.90
2022-09-05T05:37:18.351Z,93.80
2022-09-05T05:39:53.961Z,93.70
2022-09-05T05:42:25.599Z,93.60
2022-09-05T05:44:59.286Z,93.70
2022-09-05T05:47:40.016Z,93.60
2022-09-05T05:50:21.263Z,93.30
2022-09-05T05:53:02.045Z,92.70
2022-09-05T05:55:52.329Z,92.70
2022-09-05T05:58:32.646Z,91.60
2022-09-05T06:01:35.320Z,91.70
2022-09-05T06:04:09.688Z,91.70
2022-09-05T06:06:51.331Z,91.20
2022-09-05T06:14:01.174Z,91.30
2022-09-05T06:15:04.095Z,91.60
2022-09-05T06:15:12.121Z,91.60
2022-09-05T06:17:55.117Z,91.40
2022-09-05T06:21:54.563Z,91.20
2022-09-05T06:23:36.735Z,90.90
2022-09-05T06:26:30.975Z,90.20
2022-09-05T06:29:33.932Z,89.90
2022-09-05T06:32:26.608Z,89.40
2022-09-05T06:35:00.048Z,90.00
2022-09-05T06:37:43.113Z,90.50
2022-09-05T06:40:15.102Z,90.60
2022-09-05T06:43:03.352Z,89.40
2022-09-05T06:45:58.542Z,90.10
2022-09-05T06:48:45.553Z,87.90
2022-09-05T06:51:22.178Z,86.70
2022-09-05T06:54:05.201Z,90.40
2022-09-05T06:56:34.002Z,90.20
2022-09-05T06:59:21.135Z,88.30
2022-09-05T07:02:01.236Z,88.00
2022-09-05T07:05:37.747Z,88.50
2022-09-05T07:07:24.268Z,88.60
2022-09-05T07:10:03.825Z,88.00
2022-09-05T07:12:41.264Z,89.30
2022-09-05T07:15:13.393Z,89.30
2022-09-05T07:18:16.531Z,89.30
2022-09-05T07:21:17.136Z,89.80
2022-09-05T07:24:06.048Z,88.60
2022-09-05T07:26:54.152Z,89.60
2022-09-05T07:29:52.500Z,90.30
2022-09-05T07:32:31.335Z,90.00
2022-09-05T07:35:03.175Z,90.60
2022-09-05T07:37:37.816Z,90.50
2022-09-05T07:40:25.290Z,90.40
2022-09-05T07:43:09.840Z,90.20
2022-09-05T07:45:52.322Z,90.10
2022-09-05T07:48:35.326Z,89.90
2022-09-05T07:56:46.686Z,89.70
2022-09-05T07:56:58.898Z,90.10
2022-09-05T07:57:26.979Z,90.50
2022-09-05T07:59:42.760Z,90.60
2022-09-05T08:02:15.360Z,90.30
2022-09-05T08:04:44.643Z,90.40
2022-09-05T08:07:47.271Z,90.30
2022-09-05T08:10:09.872Z,90.50
2022-09-05T08:13:22.597Z,90.30
2022-09-05T08:15:39.700Z,90.40
2022-09-05T08:18:42.813Z,90.80
2022-09-05T08:21:27.656Z,90.70
2022-09-05T08:24:00.434Z,90.60
2022-09-05T08:26:49.678Z,90.60
2022-09-05T08:29:36.971Z,90.60
2022-09-05T08:32:11.228Z,90.70
2022-09-05T08:34:45.580Z,90.80
2022-09-05T08:37:21.576Z,90.80
2022-09-05T08:40:02.439Z,90.80
2022-09-05T08:45:58.584Z,90.80
2022-09-05T08:46:42.698Z,90.80
2022-09-05T08:50:08.060Z,90.90
2022-09-05T08:52:00.997Z,90.90
2022-09-05T08:55:04.075Z,91.10
2022-09-05T08:57:47.636Z,91.20
2022-09-05T09:00:19.159Z,91.20
2022-09-05T09:03:06.295Z,91.30
2022-09-05T09:06:12.104Z,91.30
2022-09-05T09:08:45.741Z,91.30
2022-09-05T09:11:21.450Z,91.40
2022-09-05T09:14:08.729Z,91.40
2022-09-05T09:16:46.842Z,91.40
2022-09-05T09:19:34.557Z,91.50
2022-09-05T09:22:15.569Z,92.10
2022-09-05T09:25:14.450Z,91.80
2022-09-05T09:28:48.343Z,92.00
2022-09-05T09:31:00.695Z,91.90
2022-09-05T09:33:41.713Z,91.90
2022-09-05T09:36:28.731Z,91.80
2022-09-05T09:39:38.384Z,91.90
2022-09-05T09:42:32.288Z,91.80
2022-09-05T09:45:27.722Z,91.70
2022-09-05T09:48:05.218Z,91.70
2022-09-05T09:50:36.551Z,91.70
2022-09-05T09:53:30.655Z,91.60
2022-09-05T09:56:07.060Z,91.50
2022-09-05T09:58:52.197Z,91.50
2022-09-05T10:01:36.722Z,91.60
2022-09-05T10:10:35.841Z,91.80
2022-09-05T10:10:48.123Z,91.80
2022-09-05T10:11:18.774Z,92.00
2022-09-05T10:13:17.925Z,92.00
2022-09-05T10:15:59.579Z,91.80
2022-09-05T10:18:43.736Z,91.90
2022-09-05T10:21:31.009Z,91.80
2022-09-05T10:23:59.825Z,92.00
2022-09-05T10:26:53.001Z,92.00
2022-09-05T10:29:40.495Z,91.90
2022-09-05T10:34:39.441Z,91.90
2022-09-05T10:35:22.142Z,91.80
2022-09-05T10:38:10.306Z,91.90
2022-09-05T10:41:20.828Z,91.80
2022-09-05T10:43:30.985Z,92.00
2022-09-05T10:46:02.315Z,91.90
2022-09-05T10:48:53.249Z,91.80
2022-09-05T10:51:41.948Z,91.80
2022-09-05T10:54:28.449Z,91.90
2022-09-05T10:57:06.190Z,92.10
2022-09-05T11:02:24.157Z,92.40
2022-09-05T11:02:46.766Z,92.50
2022-09-05T11:05:18.804Z,92.50
2022-09-05T11:08:06.693Z,92.60
2022-09-05T11:10:53.700Z,93.00
2022-09-05T11:13:40.964Z,93.50
2022-09-05T11:16:13.424Z,93.80
2022-09-05T11:18:56.408Z,94.40
2022-09-05T11:21:25.965Z,95.00
2022-09-05T11:23:57.696Z,94.30
2022-09-05T11:26:26.752Z,94.60
2022-09-05T11:29:00.309Z,95.30
2022-09-05T11:32:31.729Z,95.20
2022-09-05T11:39:48.595Z,96.30
2022-09-05T11:40:07.455Z,96.80
2022-09-05T11:40:51.123Z,97.10
2022-09-05T11:43:41.295Z,96.90
2022-09-05T11:46:16.227Z,97.00
2022-09-05T11:49:03.538Z,97.30
2022-09-05T11:51:47.650Z,98.20
2022-09-05T11:54:35.211Z,99.00
2022-09-05T11:57:33.593Z,99.20
2022-09-05T12:00:33.391Z,99.80
2022-09-05T12:03:08.610Z,99.90
2022-09-05T12:05:58.977Z,99.90
2022-09-05T12:08:46.192Z,99.90
2022-09-05T12:11:29.963Z,99.90
2022-09-05T12:14:20.931Z,99.90
2022-09-05T12:17:10.353Z,99.90
2022-09-05T12:19:52.061Z,99.20
2022-09-05T12:22:30.822Z,98.60
2022-09-05T12:25:27.563Z,99.90
2022-09-05T12:28:39.103Z,99.90
2022-09-05T12:31:29.652Z,99.90
2022-09-05T12:36:07.147Z,99.90
2022-09-05T12:39:52.023Z,99.90
2022-09-05T12:41:35.912Z,99.90
2022-09-05T12:42:45.728Z,99.90
2022-09-05T12:45:37.241Z,99.90
2022-09-05T12:48:12.628Z,99.90
2022-09-05T12:50:53.971Z,99.90
2022-09-05T12:53:23.351Z,99.90
2022-09-05T12:56:51.356Z,99.00
2022-09-05T13:02:56.316Z,98.80
2022-09-05T13:03:13.988Z,98.90
2022-09-05T13:04:32.878Z,99.90
2022-09-05T13:07:06.910Z,99.90
2022-09-05T13:12:07.440Z,99.90
2022-09-05T13:14:59.080Z,99.90
2022-09-05T13:15:28.686Z,99.80
2022-09-05T13:18:00.835Z,99.00
2022-09-05T13:20:37.763Z,98.60
2022-09-05T13:23:24.720Z,98.80
2022-09-05T13:25:59.692Z,99.00
2022-09-05T13:28:36.649Z,98.50
2022-09-05T13:38:05.803Z,99.30
2022-09-05T13:38:11.605Z,98.40
2022-09-05T13:38:30.547Z,98.40
2022-09-05T13:39:49.613Z,98.10
2022-09-05T13:42:20.980Z,99.10
2022-09-05T13:44:52.808Z,99.90
2022-09-05T13:47:39.845Z,99.90
2022-09-05T13:50:18.680Z,99.90
2022-09-05T13:52:51.503Z,99.90
2022-09-05T13:55:26.476Z,99.90
2022-09-05T13:57:58.245Z,99.60
2022-09-05T14:00:41.755Z,99.90
2022-09-05T14:03:31.493Z,99.90
2022-09-05T14:06:09.976Z,99.90
2022-09-05T14:12:04.425Z,99.90
2022-09-05T14:20:29.327Z,99.90
2022-09-05T14:23:08.581Z,99.90
2022-09-05T14:25:39.732Z,99.60
2022-09-05T14:28:20.535Z,99.90
2022-09-05T14:35:00.770Z,99.90
2022-09-05T14:37:44.462Z,99.20
2022-09-05T14:37:55.227Z,99.50
2022-09-05T14:39:29.600Z,99.90
2022-09-05T14:42:09.961Z,99.90
2022-09-05T14:44:57.242Z,99.90
2022-09-05T14:47:47.656Z,99.90
2022-09-05T14:50:21.243Z,99.90
2022-09-05T14:55:55.043Z,99.90
2022-09-05T15:02:39.425Z,99.40
2022-09-05T15:02:52.911Z,99.80
2022-09-05T15:04:41.054Z,99.80
2022-09-05T15:07:15.789Z,99.50
2022-09-05T15:12:15.503Z,99.30
2022-09-05T15:12:45.465Z,99.30
2022-09-05T15:15:26.928Z,99.30
2022-09-05T15:17:58.907Z,99.60
2022-09-05T15:20:30.476Z,99.20
2022-09-05T15:22:59.156Z,99.30
2022-09-05T15:25:48.215Z,99.60
2022-09-05T15:28:21.982Z,99.80
2022-09-05T15:30:58.810Z,99.30
2022-09-05T15:33:29.515Z,99.10
2022-09-05T15:35:59.681Z,99.60
2022-09-05T15:38:30.504Z,99.60
2022-09-05T15:41:08.922Z,99.90
2022-09-05T15:43:52.577Z,99.90
2022-09-05T15:46:29.488Z,99.90
2022-09-05T15:49:03.076Z,99.90
2022-09-05T15:51:38.083Z,99.90
2022-09-05T15:54:06.915Z,99.90
2022-09-05T15:56:48.108Z,99.90
2022-09-05T15:59:17.587Z,99.90
2022-09-05T16:01:59.058Z,99.90
2022-09-05T16:06:36.354Z,99.90
2022-09-05T16:10:37.466Z,99.90
2022-09-05T16:10:43.755Z,99.90
2022-09-05T16:13:00.351Z,99.90
2022-09-05T16:17:06.250Z,99.90
2022-09-05T16:23:25.663Z,99.90
2022-09-05T16:23:33.605Z,99.90
2022-09-05T16:24:58.230Z,99.80
2022-09-05T16:27:16.958Z,99.50
2022-09-05T16:29:49.112Z,99.90
2022-09-05T16:32:25.354Z,99.90
2022-09-05T16:34:58.702Z,99.90
2022-09-05T16:37:32.454Z,99.90
2022-09-05T16:40:07.075Z,99.90
2022-09-05T16:42:45.866Z,99.90
2022-09-05T16:45:34.013Z,99.90
2022-09-05T16:48:21.048Z,99.90
2022-09-05T16:50:54.121Z,99.90
2022-09-05T16:53:31.027Z,99.90
2022-09-05T16:56:00.804Z,99.90
2022-09-05T16:58:37.127Z,99.90
2022-09-05T17:01:11.670Z,99.90
2022-09-05T17:03:46.105Z,99.90
2022-09-05T17:06:26.179Z,99.90
2022-09-05T17:09:03.216Z,99.90
2022-09-05T17:11:54.582Z,99.90
2022-09-05T17:14:34.237Z,99.90
2022-09-05T17:17:19.632Z,99.90
2022-09-05T17:20:07.129Z,99.90
2022-09-05T17:25:11.118Z,99.90
2022-09-05T17:29:32.366Z,99.90
2022-09-05T17:29:37.956Z,99.90
2022-09-05T17:31:54.519Z,99.90
2022-09-05T17:34:40.257Z,99.90
2022-09-05T17:37:20.783Z,99.90
2022-09-05T17:39:56.770Z,99.90
2022-09-05T17:42:32.807Z,99.90
2022-09-05T17:45:19.223Z,99.90
2022-09-05T17:47:53.146Z,99.90
2022-09-05T17:50:28.187Z,99.90
2022-09-05T17:53:26.131Z,99.90
2022-09-05T17:55:56.424Z,99.90
2022-09-05T17:58:49.388Z,99.90
2022-09-05T18:01:19.101Z,99.90
2022-09-05T18:03:48.152Z,99.90
2022-09-05T18:06:16.753Z,99.90
2022-09-05T18:08:49.352Z,99.90
2022-09-05T18:11:25.392Z,99.90
2022-09-05T18:13:55.207Z,99.90
2022-09-05T18:16:48.343Z,99.90
2022-09-05T18:19:44.291Z,99.90
2022-09-05T18:22:13.373Z,99.90
2022-09-05T18:24:48.609Z,99.90
2022-09-05T18:27:44.035Z,99.90
2022-09-05T18:30:11.654Z,99.90
2022-09-05T18:32:40.575Z,99.90
2022-09-05T18:35:29.275Z,99.90
2022-09-05T18:38:06.236Z,99.90
2022-09-05T18:40:40.520Z,99.90
2022-09-05T18:43:14.629Z,99.90
2022-09-05T18:45:52.951Z,99.90
2022-09-05T18:48:26.538Z,99.90
2022-09-05T18:51:13.337Z,99.90
2022-09-05T18:53:47.396Z,99.90
2022-09-05T18:56:39.417Z,99.90
2022-09-05T18:59:24.466Z,99.90
2022-09-05T19:01:56.028Z,99.90
2022-09-05T19:04:39.067Z,99.90
2022-09-05T19:07:28.809Z,99.90
2022-09-05T19:10:00.791Z,99.90
2022-09-05T19:12:53.320Z,99.90
2022-09-05T19:15:27.423Z,99.90
2022-09-05T19:18:25.898Z,99.90
2022-09-05T19:20:49.739Z,99.90
2022-09-05T19:23:27.572Z,99.90
2022-09-05T19:26:08.261Z,99.90
2022-09-05T19:36:45.641Z,99.90
2022-09-05T19:36:49.415Z,99.90
2022-09-05T19:36:55.340Z,99.90
2022-09-05T19:37:27.480Z,99.90
2022-09-05T19:44:04.648Z,99.90
2022-09-05T19:47:42.609Z,99.90
2022-09-05T19:47:51.106Z,99.90
2022-09-05T19:48:35.610Z,99.90
2022-09-05T19:51:17.491Z,99.90
2022-09-05T19:53:59.673Z,99.90
2022-09-05T19:56:37.508Z,99.90
2022-09-05T19:59:24.416Z,99.90
2022-09-05T20:01:54.594Z,99.90
2022-09-05T20:04:23.717Z,99.90
2022-09-05T20:06:52.640Z,99.90
2022-09-05T20:09:21.535Z,99.90
2022-09-05T20:11:51.946Z,99.90
2022-09-05T20:14:22.255Z,99.90
2022-09-05T20:16:51.471Z,99.90
2022-09-05T20:19:28.809Z,99.90
2022-09-05T20:22:12.763Z,99.90
2022-09-05T20:24:51.411Z,99.90
2022-09-05T20:27:27.065Z,99.90
2022-09-05T20:30:00.422Z,99.90
2022-09-05T20:32:39.648Z,99.90
2022-09-05T20:39:08.656Z,99.90
2022-09-05T20:43:20.804Z,99.90
2022-09-05T20:43:28.334Z,99.90
2022-09-05T20:43:53.554Z,99.90
2022-09-05T20:50:30.716Z,99.90
2022-09-05T20:54:05.155Z,99.90
2022-09-05T20:54:14.520Z,99.90
2022-09-05T20:55:38.293Z,99.90
2022-09-05T20:57:51.604Z,99.90
2022-09-05T21:00:24.507Z,99.90
2022-09-05T21:02:59.843Z,99.90
2022-09-05T21:05:31.188Z,99.90
2022-09-05T21:08:20.941Z,99.90
2022-09-05T21:10:59.601Z,99.90
2022-09-05T21:13:30.651Z,99.90
2022-09-05T21:16:00.222Z,99.90
2022-09-05T21:18:34.209Z,99.90
2022-09-05T21:21:13.252Z,99.90
2022-09-05T21:24:17.344Z,99.90
2022-09-05T21:26:51.449Z,99.90
2022-09-05T21:29:33.350Z,99.90
2022-09-05T21:32:04.022Z,99.90
2022-09-05T21:34:45.029Z,99.90
2022-09-05T21:37:16.016Z,99.90
2022-09-05T21:40:00.137Z,99.90
2022-09-05T21:47:38.087Z,99.90
2022-09-05T21:47:38.390Z,99.90
2022-09-05T21:48:10.694Z,99.90
2022-09-05T21:50:43.249Z,99.90
2022-09-05T21:54:22.430Z,99.90
2022-09-05T21:59:19.320Z,99.90
2022-09-05T21:59:32.589Z,99.90
2022-09-05T22:01:52.229Z,99.90
2022-09-05T22:04:22.870Z,99.90
2022-09-05T22:06:54.199Z,99.90
2022-09-05T22:09:23.956Z,99.90
2022-09-05T22:11:52.785Z,99.90
2022-09-05T22:14:22.637Z,99.90
2022-09-05T22:16:53.110Z,99.90
2022-09-05T22:19:36.897Z,99.90
2022-09-05T22:22:17.175Z,99.90
2022-09-05T22:24:52.631Z,99.90
2022-09-05T22:27:22.186Z,99.90
2022-09-05T22:29:51.207Z,99.90
2022-09-05T22:32:28.569Z,99.90
2022-09-05T22:35:27.357Z,99.90
2022-09-05T22:38:01.316Z,99.90
2022-09-05T22:40:33.138Z,99.90
2022-09-05T22:43:03.328Z,99.90
2022-09-05T22:45:33.358Z,99.90
2022-09-05T22:48:07.659Z,99.90
2022-09-05T22:50:36.673Z,99.90
2022-09-05T22:53:08.340Z,99.90
2022-09-05T22:55:39.968Z,99.90
2022-09-05T22:58:09.926Z,99.90
2022-09-05T23:00:39.355Z,99.90
2022-09-05T23:03:09.003Z,99.90
2022-09-05T23:05:38.732Z,99.90
2022-09-05T23:08:09.675Z,99.90
2022-09-05T23:10:39.275Z,99.90
2022-09-05T23:13:09.355Z,99.90
2022-09-05T23:15:38.757Z,99.90
2022-09-05T23:18:07.852Z,99.90
2022-09-05T23:20:36.883Z,99.90
2022-09-05T23:23:07.299Z,99.90
2022-09-05T23:25:36.967Z,99.90
2022-09-05T23:28:11.701Z,99.90
2022-09-05T23:30:41.605Z,99.90
2022-09-05T23:33:11.303Z,99.90
2022-09-05T23:35:40.199Z,99.90
2022-09-05T23:38:12.948Z,99.90
2022-09-05T23:40:41.926Z,99.90
2022-09-05T23:43:10.840Z,99.90
2022-09-05T23:45:39.772Z,99.90
2022-09-05T23:48:08.648Z,99.90
2022-09-05T23:50:37.546Z,99.90
2022-09-05T23:53:06.488Z,99.90
2022-09-05T23:55:35.353Z,99.90
2022-09-05T23:58:04.281Z,99.90
